TimeCST,TemperatureF,Dew PointF,Humidity,Sea Level PressureIn,VisibilityMPH,Wind Direction,Wind SpeedMPH,Gust SpeedMPH,PrecipitationIn,Events,Conditions,WindDirDegrees,DateUTC
12:53 AM,39.0,30.0,70,30.18,10.0,SSW,4.6,-,N/A,,Clear,210,2012-11-30 06:53:00
1:53 AM,42.1,30.0,62,30.18,10.0,South,6.9,-,N/A,,Clear,190,2012-11-30 07:53:00
2:53 AM,39.0,28.9,67,30.18,10.0,Calm,Calm,-,N/A,,Clear,0,2012-11-30 08:53:00
3:53 AM,37.0,28.9,73,30.16,10.0,South,4.6,-,N/A,,Clear,180,2012-11-30 09:53:00
4:53 AM,39.9,28.9,65,30.15,10.0,South,3.5,-,N/A,,Clear,170,2012-11-30 10:53:00
6:53 AM,37.0,28.9,73,30.17,10.0,Calm,Calm,-,N/A,,Clear,0,2012-11-30 12:53:00
7:53 AM,41.0,30.9,67,30.17,10.0,South,3.5,-,N/A,,Clear,180,2012-11-30 13:53:00
8:53 AM,50.0,33.1,52,30.17,10.0,SW,6.9,-,N/A,,Clear,220,2012-11-30 14:53:00
9:53 AM,54.0,34.0,47,30.18,10.0,SSW,8.1,-,N/A,,Clear,210,2012-11-30 15:53:00
10:53 AM,57.9,37.9,47,30.17,10.0,SSW,8.1,-,N/A,,Clear,210,2012-11-30 16:53:00
11:53 AM,61.0,41.0,48,30.14,10.0,SSW,6.9,-,N/A,,Clear,200,2012-11-30 17:53:00
12:53 PM,62.1,42.1,48,30.12,10.0,South,9.2,-,N/A,,Clear,190,2012-11-30 18:53:00
1:53 PM,63.0,44.1,50,30.10,10.0,South,6.9,-,N/A,,Clear,180,2012-11-30 19:53:00
2:53 PM,64.0,45.0,50,30.09,10.0,SW,5.8,-,N/A,,Clear,230,2012-11-30 20:53:00
3:53 PM,62.1,44.1,52,30.10,10.0,South,5.8,-,N/A,,Clear,170,2012-11-30 21:53:00
4:53 PM,57.9,43.0,58,30.11,10.0,SE,3.5,-,N/A,,Clear,130,2012-11-30 22:53:00
5:53 PM,55.9,43.0,62,30.12,10.0,SE,4.6,-,N/A,,Clear,140,2012-11-30 23:53:00
6:53 PM,54.0,44.1,69,30.13,10.0,SSE,8.1,-,N/A,,Clear,160,2012-12-01 00:53:00
7:53 PM,53.1,46.0,77,30.13,10.0,South,5.8,-,N/A,,Clear,180,2012-12-01 01:53:00
8:53 PM,53.1,46.9,80,30.12,10.0,South,5.8,-,N/A,,Clear,170,2012-12-01 02:53:00
9:53 PM,51.1,46.0,83,30.13,8.0,South,4.6,-,N/A,,Scattered Clouds,190,2012-12-01 03:53:00
10:03 PM,51.8,46.4,82,30.13,9.0,South,6.9,-,N/A,,Mostly Cloudy,190,2012-12-01 04:03:00
10:27 PM,51.8,46.4,82,30.14,8.0,SSW,5.8,-,N/A,,Scattered Clouds,200,2012-12-01 04:27:00
10:43 PM,53.6,48.2,82,30.13,8.0,South,8.1,-,N/A,,Mostly Cloudy,180,2012-12-01 04:43:00
10:53 PM,52.0,48.0,86,30.13,8.0,South,8.1,-,N/A,,Mostly Cloudy,170,2012-12-01 04:53:00
11:09 PM,51.8,46.4,82,30.14,7.0,South,5.8,-,N/A,,Scattered Clouds,180,2012-12-01 05:09:00
11:18 PM,51.8,46.4,82,30.13,7.0,SSE,5.8,-,N/A,,Mostly Cloudy,160,2012-12-01 05:18:00
11:53 PM,52.0,46.9,83,30.12,7.0,South,6.9,-,N/A,,Overcast,170,2012-12-01 05:53:00